Mc Donald, Pennsylvania
Current Conditions -  °F | °C
As of 2:51 PM on Thursday 30 Oct 2014 (Local Time) from KPIT Reporting Station
Overcast Overcast  
Wind Chill: 45°   Ceiling: 4100
Heat Index: 48°   Visibility: 10mi
Dew Point: 37°   Wind: 6mph
Humidity: 66%   Direction: 290°WNW
Pressure: 30.06"   Gusts: NA
Location:  40.3662°N, 80.2739°W
Report Text: KPIT 301851Z 29005KT 10SM SCT028 OVC041 09/03 A3006 RMK AO2 SLP194 T00890028
Loading
Personal Weather Stations






























Interactive Weather Map New forecast layout! Learn more

10-Day Weather Forecast

Advertisements
Track Severe Weather on mobile